createdAt,value
2022-08-12T00:01:03.033Z,101907.03
2022-08-12T00:03:50.054Z,101886.84
2022-08-12T00:06:37.724Z,101862.13
2022-08-12T00:09:26.340Z,101883.03
2022-08-12T00:12:12.648Z,101878.22
2022-08-12T00:14:59.003Z,101897.84
2022-08-12T00:17:44.750Z,101865.09
2022-08-12T00:20:30.474Z,101878.03
2022-08-12T00:23:16.407Z,101881.44
2022-08-12T00:26:23.716Z,101885.06
2022-08-12T00:29:11.847Z,101885.44
2022-08-12T00:31:59.250Z,101878.94
2022-08-12T00:34:46.634Z,101895.59
2022-08-12T00:37:34.870Z,101898.09
2022-08-12T00:40:22.926Z,101879.22
2022-08-12T00:42:51.658Z,101874.69
2022-08-12T00:45:19.268Z,101879.22
2022-08-12T00:47:46.887Z,101876.72
2022-08-12T00:50:19.196Z,101868.69
2022-08-12T00:52:51.886Z,101873.28
2022-08-12T00:55:19.541Z,101856.16
2022-08-12T00:57:49.123Z,101860.94
2022-08-12T01:00:20.068Z,101885.47
2022-08-12T01:02:51.722Z,101881.75
2022-08-12T01:05:43.653Z,101894.47
2022-08-12T01:08:29.850Z,101848.94
2022-08-12T01:11:15.552Z,101896.56
2022-08-12T01:13:49.579Z,101896.78
2022-08-12T01:16:22.919Z,101879.06
2022-08-12T01:18:51.955Z,101901.59
2022-08-12T01:21:27.950Z,101902.16
2022-08-12T01:24:30.935Z,101904.53
2022-08-12T01:26:59.551Z,101891.41
2022-08-12T01:29:34.648Z,101904.38
2022-08-12T01:32:06.651Z,101911.41
2022-08-12T01:34:39.014Z,101889.38
2022-08-12T01:37:09.211Z,101873.13
2022-08-12T01:40:33.648Z,101901.00
2022-08-12T01:42:41.979Z,101913.69
2022-08-12T01:45:10.116Z,101907.47
2022-08-12T01:48:14.546Z,101915.41
2022-08-12T01:51:06.718Z,101913.44
2022-08-12T01:54:04.870Z,101919.09
2022-08-12T01:57:03.316Z,101918.31
2022-08-12T01:59:47.302Z,101920.19
2022-08-12T02:02:27.189Z,101904.09
2022-08-12T02:05:43.627Z,101917.28
2022-08-12T02:08:35.486Z,101903.44
2022-08-12T02:11:24.637Z,101890.78
2022-08-12T02:14:19.072Z,101906.34
2022-08-12T02:16:58.935Z,101904.38
2022-08-12T02:19:40.936Z,101897.75
2022-08-12T02:22:31.353Z,101898.28
2022-08-12T02:25:08.047Z,101902.72
2022-08-12T02:27:39.701Z,101900.59
2022-08-12T02:30:09.053Z,101857.16
2022-08-12T02:32:40.543Z,101876.16
2022-08-12T02:35:15.063Z,101879.47
2022-08-12T02:37:43.932Z,101862.28
2022-08-12T02:40:12.599Z,101897.69
2022-08-12T02:42:51.264Z,101883.59
2022-08-12T02:45:25.985Z,101876.53
2022-08-12T02:47:59.650Z,101875.47
2022-08-12T02:50:31.630Z,101893.31
2022-08-12T02:52:59.616Z,101876.44
2022-08-12T02:55:34.269Z,101893.91
2022-08-12T02:58:04.259Z,101876.00
2022-08-12T03:00:40.196Z,101884.09
2022-08-12T03:03:13.019Z,101870.25
2022-08-12T03:06:27.471Z,101877.75
2022-08-12T03:08:57.614Z,101867.31
2022-08-12T03:11:50.919Z,101876.22
2022-08-12T03:14:25.963Z,101876.41
2022-08-12T03:17:07.334Z,101867.75
2022-08-12T03:19:34.241Z,101873.75
2022-08-12T03:22:13.178Z,101885.72
2022-08-12T03:24:43.109Z,101878.75
2022-08-12T03:27:11.848Z,101883.91
2022-08-12T03:29:49.670Z,101875.59
2022-08-12T03:32:35.512Z,101896.22
2022-08-12T03:35:07.985Z,101895.81
2022-08-12T03:37:37.399Z,101888.91
2022-08-12T03:40:05.134Z,101890.69
2022-08-12T03:42:42.251Z,101889.53
2022-08-12T03:45:52.587Z,101894.97
2022-08-12T03:48:38.234Z,101884.47
2022-08-12T03:51:23.882Z,101893.91
2022-08-12T03:54:11.307Z,101897.38
2022-08-12T03:56:56.930Z,101892.41
2022-08-12T03:59:42.433Z,101886.41
2022-08-12T04:02:14.857Z,101895.41
2022-08-12T04:04:45.433Z,101890.84
2022-08-12T04:07:13.332Z,101881.34
2022-08-12T04:09:42.332Z,101891.81
2022-08-12T04:12:29.269Z,101889.03
2022-08-12T04:15:00.543Z,101881.22
2022-08-12T04:17:28.774Z,101887.16
2022-08-12T04:19:59.444Z,101877.22
2022-08-12T04:22:29.950Z,101884.66
2022-08-12T04:25:03.215Z,101888.72
2022-08-12T04:27:32.084Z,101891.25
2022-08-12T04:30:17.182Z,101879.72
2022-08-12T04:32:50.174Z,101885.31
2022-08-12T04:35:17.240Z,101878.81
2022-08-12T04:37:58.486Z,101880.41
2022-08-12T04:40:30.704Z,101871.44
2022-08-12T04:42:58.069Z,101875.13
2022-08-12T04:45:25.184Z,101863.94
2022-08-12T04:47:52.802Z,101862.28
2022-08-12T04:50:34.831Z,101877.25
2022-08-12T04:53:08.026Z,101864.22
2022-08-12T04:55:36.904Z,101864.84
2022-08-12T04:58:03.720Z,101861.97
2022-08-12T05:00:30.473Z,101878.78
2022-08-12T05:02:57.226Z,101874.84
2022-08-12T05:05:24.719Z,101883.94
2022-08-12T05:07:53.653Z,101888.91
2022-08-12T05:10:33.902Z,101877.72
2022-08-12T05:13:14.661Z,101880.63
2022-08-12T05:15:53.051Z,101840.63
2022-08-12T05:18:39.813Z,101872.81
2022-08-12T05:21:09.129Z,101853.38
2022-08-12T05:23:40.496Z,101863.69
2022-08-12T05:26:07.447Z,101858.19
2022-08-12T05:28:36.078Z,101872.91
2022-08-12T05:31:03.381Z,101866.69
2022-08-12T05:33:37.720Z,101853.59
2022-08-12T05:36:09.995Z,101863.00
2022-08-12T05:38:55.747Z,101861.94
2022-08-12T05:41:35.301Z,101859.31
2022-08-12T05:44:12.783Z,101857.22
2022-08-12T05:46:39.598Z,101851.22
2022-08-12T05:49:06.578Z,101872.34
2022-08-12T05:51:41.183Z,101846.94
2022-08-12T05:54:08.565Z,101820.69
2022-08-12T05:56:39.982Z,101861.75
2022-08-12T05:59:07.696Z,101853.69
2022-08-12T06:02:09.348Z,101858.78
2022-08-12T06:04:22.446Z,101822.19
2022-08-12T06:06:53.461Z,101849.38
2022-08-12T06:09:22.829Z,101864.94
2022-08-12T06:12:05.072Z,101828.41
2022-08-12T06:14:36.757Z,101832.59
2022-08-12T06:17:06.073Z,101845.13
2022-08-12T06:20:27.000Z,101837.31
2022-08-12T06:22:19.481Z,101877.53
2022-08-12T06:24:48.562Z,101864.94
2022-08-12T06:27:18.994Z,101845.25
2022-08-12T06:30:09.844Z,101859.88
2022-08-12T06:32:32.919Z,101868.41
2022-08-12T06:35:25.739Z,101825.88
2022-08-12T06:37:57.185Z,101829.13
2022-08-12T06:40:43.759Z,101869.50
2022-08-12T06:43:11.304Z,101828.78
2022-08-12T06:45:46.889Z,101853.47
2022-08-12T06:48:14.168Z,101855.66
2022-08-12T06:50:42.511Z,101888.81
2022-08-12T06:53:11.395Z,101858.34
2022-08-12T06:55:39.482Z,101856.25
2022-08-12T06:58:25.540Z,101833.59
2022-08-12T07:00:52.459Z,101858.22
2022-08-12T07:03:25.744Z,101865.84
2022-08-12T07:05:52.506Z,101876.97
2022-08-12T07:08:19.759Z,101886.53
2022-08-12T07:10:59.378Z,101894.34
2022-08-12T07:14:11.995Z,101889.53
2022-08-12T07:16:56.804Z,101873.13
2022-08-12T07:19:23.709Z,101858.69
2022-08-12T07:22:01.681Z,101860.53
2022-08-12T07:24:29.309Z,101867.63
2022-08-12T07:26:56.008Z,101896.28
2022-08-12T07:29:23.087Z,101893.94
2022-08-12T07:31:49.879Z,101872.44
2022-08-12T07:34:17.231Z,101895.00
2022-08-12T07:36:45.837Z,101877.25
2022-08-12T07:39:13.515Z,101908.19
2022-08-12T07:41:40.295Z,101883.34
2022-08-12T07:44:09.094Z,101873.13
2022-08-12T07:46:39.672Z,101863.06
2022-08-12T07:49:15.427Z,101901.91
2022-08-12T07:51:44.579Z,101877.97
2022-08-12T07:54:13.010Z,101881.59
2022-08-12T07:56:41.689Z,101895.91
2022-08-12T07:59:09.083Z,101858.53
2022-08-12T08:01:38.117Z,101906.63
2022-08-12T08:04:25.327Z,101914.41
2022-08-12T08:06:52.465Z,101889.25
2022-08-12T08:09:22.222Z,101873.53
2022-08-12T08:12:27.386Z,101878.22
2022-08-12T08:14:58.735Z,101916.56
2022-08-12T08:17:28.395Z,101894.16
2022-08-12T08:20:03.851Z,101907.59
2022-08-12T08:22:40.657Z,101908.44
2022-08-12T08:25:20.472Z,101871.34
2022-08-12T08:27:56.433Z,101888.13
2022-08-12T08:30:24.021Z,101906.03
2022-08-12T08:32:50.706Z,101882.94
2022-08-12T08:35:17.464Z,101904.38
2022-08-12T08:37:47.107Z,101879.59
2022-08-12T08:40:34.004Z,101896.22
2022-08-12T08:43:04.071Z,101884.63
2022-08-12T08:45:31.494Z,101912.75
2022-08-12T08:48:00.381Z,101876.59
2022-08-12T08:50:27.561Z,101911.28
2022-08-12T08:52:54.591Z,101899.34
2022-08-12T08:55:30.047Z,101877.81
2022-08-12T08:58:10.014Z,101910.81
2022-08-12T09:00:38.837Z,101844.16
2022-08-12T09:04:21.296Z,101908.63
2022-08-12T09:06:02.591Z,101882.13
2022-08-12T09:08:30.064Z,101900.34
2022-08-12T09:12:10.683Z,101878.81
2022-08-12T09:14:10.837Z,101901.38
2022-08-12T09:16:42.766Z,101901.97
2022-08-12T09:19:27.523Z,101881.75
2022-08-12T09:21:55.475Z,101879.97
2022-08-12T09:24:22.488Z,101884.25
2022-08-12T09:26:49.660Z,101918.72
2022-08-12T09:30:11.153Z,101865.28
2022-08-12T09:32:31.522Z,101858.34
2022-08-12T09:34:56.782Z,101862.19
2022-08-12T09:37:26.909Z,101867.06
2022-08-12T09:40:06.093Z,101904.50
2022-08-12T09:43:15.565Z,101875.53
2022-08-12T09:46:20.567Z,101898.69
2022-08-12T09:48:36.557Z,101888.63
2022-08-12T09:51:17.087Z,101861.97
2022-08-12T09:53:50.743Z,101891.38
2022-08-12T09:57:00.231Z,101823.06
2022-08-12T10:00:15.817Z,101849.13
2022-08-12T10:02:44.518Z,101853.63
2022-08-12T10:04:59.678Z,101863.56
2022-08-12T10:07:28.669Z,101861.25
2022-08-12T10:10:08.111Z,101877.50
2022-08-12T10:13:12.283Z,101851.94
2022-08-12T10:16:00.962Z,101883.50
2022-08-12T10:18:35.364Z,101887.94
2022-08-12T10:21:07.297Z,101845.56
2022-08-12T10:23:40.769Z,101825.91
2022-08-12T10:26:37.548Z,101847.91
2022-08-12T10:30:37.105Z,101849.13
2022-08-12T10:32:44.546Z,101837.44
2022-08-12T10:35:10.634Z,101848.44
2022-08-12T10:38:34.806Z,101831.97
2022-08-12T10:40:31.585Z,101832.94
2022-08-12T10:43:18.545Z,101822.47
2022-08-12T10:45:49.809Z,101852.66
2022-08-12T10:48:26.781Z,101854.16
2022-08-12T10:51:01.762Z,101825.00
2022-08-12T10:53:43.968Z,101869.75
2022-08-12T10:56:17.167Z,101869.13
2022-08-12T10:58:46.995Z,101844.22
2022-08-12T11:01:49.166Z,101865.75
2022-08-12T11:04:24.605Z,101850.41
2022-08-12T11:07:05.152Z,101870.66
2022-08-12T11:09:58.491Z,101829.34
2022-08-12T11:12:56.485Z,101801.84
2022-08-12T11:15:20.859Z,101850.84
2022-08-12T11:17:53.641Z,101857.22
2022-08-12T11:20:24.057Z,101823.94
2022-08-12T11:23:03.978Z,101813.91
2022-08-12T11:25:57.419Z,101818.41
2022-08-12T11:28:34.005Z,101850.78
2022-08-12T11:31:01.820Z,101824.38
2022-08-12T11:34:04.209Z,101820.22
2022-08-12T11:36:15.744Z,101819.47
2022-08-12T11:38:42.802Z,101833.97
2022-08-12T11:41:10.034Z,101808.72
2022-08-12T11:43:50.137Z,101794.03
2022-08-12T11:46:23.460Z,101831.81
2022-08-12T11:48:51.443Z,101813.13
2022-08-12T11:51:19.787Z,101836.63
2022-08-12T11:53:57.032Z,101800.63
2022-08-12T11:56:25.439Z,101799.22
2022-08-12T12:02:01.887Z,101812.72
2022-08-12T12:04:31.607Z,101774.88
2022-08-12T12:07:07.224Z,101819.53
2022-08-12T12:09:52.058Z,101810.75
2022-08-12T12:12:25.165Z,101807.88
2022-08-12T12:14:54.888Z,101787.56
2022-08-12T12:17:26.327Z,101834.81
2022-08-12T12:20:11.568Z,101810.97
2022-08-12T12:22:41.440Z,101755.78
2022-08-12T12:25:13.662Z,101768.44
2022-08-12T12:28:04.891Z,101816.13
2022-08-12T12:30:34.968Z,101824.16
2022-08-12T12:33:01.939Z,101770.53
2022-08-12T12:36:18.527Z,101833.03
2022-08-12T12:38:17.452Z,101795.34
2022-08-12T12:40:45.914Z,101804.34
2022-08-12T12:43:17.606Z,101767.25
2022-08-12T12:45:57.152Z,101775.19
2022-08-12T12:48:24.099Z,101772.66
2022-08-12T12:51:13.523Z,101798.69
2022-08-12T12:54:07.730Z,101784.16
2022-08-12T12:56:34.750Z,101806.97
2022-08-12T12:59:03.855Z,101799.47
2022-08-12T13:01:36.311Z,101799.84
2022-08-12T13:04:08.085Z,101778.91
2022-08-12T13:06:42.025Z,101779.47
2022-08-12T13:09:13.277Z,101796.16
2022-08-12T13:11:42.095Z,101798.97
2022-08-12T13:14:27.871Z,101784.91
2022-08-12T13:16:57.538Z,101770.22
2022-08-12T13:19:38.919Z,101738.31
2022-08-12T13:22:20.408Z,101763.06
2022-08-12T13:24:55.496Z,101806.16
2022-08-12T13:27:41.680Z,101799.28
2022-08-12T13:30:15.627Z,101773.44
2022-08-12T13:32:57.593Z,101751.88
2022-08-12T13:36:03.015Z,101804.41
2022-08-12T13:38:34.637Z,101791.56
2022-08-12T13:41:03.566Z,101777.44
2022-08-12T13:43:40.180Z,101780.44
2022-08-12T13:46:12.044Z,101773.81
2022-08-12T13:48:45.321Z,101796.31
2022-08-12T13:51:13.711Z,101793.47
2022-08-12T13:53:57.716Z,101783.41
2022-08-12T13:56:29.884Z,101806.19
2022-08-12T13:59:07.725Z,101813.13
2022-08-12T14:01:40.373Z,101789.66
2022-08-12T14:04:11.509Z,101764.25
2022-08-12T14:06:39.443Z,101810.16
2022-08-12T14:09:17.957Z,101751.75
2022-08-12T14:11:59.014Z,101792.56
2022-08-12T14:14:27.935Z,101796.50
2022-08-12T14:17:00.335Z,101752.16
2022-08-12T14:19:33.293Z,101757.44
2022-08-12T14:22:05.017Z,101759.94
2022-08-12T14:24:40.913Z,101723.97
2022-08-12T14:27:10.404Z,101788.34
2022-08-12T14:30:05.135Z,101781.31
2022-08-12T14:32:36.513Z,101770.66
2022-08-12T14:35:09.199Z,101753.94
2022-08-12T14:37:56.682Z,101747.78
2022-08-12T14:40:30.434Z,101724.66
2022-08-12T14:42:58.893Z,101763.84
2022-08-12T14:45:44.489Z,101743.84
2022-08-12T14:48:15.062Z,101755.09
2022-08-12T14:51:02.563Z,101729.88
2022-08-12T14:59:57.274Z,101692.25
2022-08-12T15:02:19.677Z,101698.16
2022-08-12T15:04:59.022Z,101739.81
2022-08-12T15:07:34.453Z,101753.88
2022-08-12T15:10:12.722Z,101726.06
2022-08-12T15:12:40.503Z,101699.25
2022-08-12T15:15:09.059Z,101707.53
2022-08-12T15:17:38.614Z,101690.69
2022-08-12T15:20:31.791Z,101716.38
2022-08-12T15:22:54.341Z,101723.97
2022-08-12T15:25:21.208Z,101691.75
2022-08-12T15:28:05.537Z,101731.66
2022-08-12T15:30:35.584Z,101739.78
2022-08-12T15:33:12.698Z,101725.25
2022-08-12T15:35:51.929Z,101720.94
2022-08-12T15:38:21.707Z,101735.19
2022-08-12T15:40:51.433Z,101687.34
2022-08-12T15:43:51.704Z,101725.72
2022-08-12T15:46:06.527Z,101701.13
2022-08-12T15:48:34.240Z,101705.63
2022-08-12T15:51:03.027Z,101718.06
2022-08-12T15:53:53.299Z,101722.59
2022-08-12T15:56:29.364Z,101671.44
2022-08-12T15:58:59.085Z,101684.16
2022-08-12T16:01:35.378Z,101686.97
2022-08-12T16:04:02.720Z,101684.47
2022-08-12T16:07:00.571Z,101679.19
2022-08-12T16:09:21.645Z,101672.00
2022-08-12T16:12:07.924Z,101653.19
2022-08-12T16:14:38.986Z,101690.56
2022-08-12T16:17:09.082Z,101658.50
2022-08-12T16:20:04.963Z,101708.78
2022-08-12T16:22:29.273Z,101682.78
2022-08-12T16:24:56.753Z,101668.50
2022-08-12T16:27:23.818Z,101670.38
2022-08-12T16:29:57.579Z,101689.19
2022-08-12T16:32:31.777Z,101678.50
2022-08-12T16:35:01.500Z,101670.78
2022-08-12T16:38:25.641Z,101689.88
2022-08-12T16:40:20.259Z,101669.03
2022-08-12T16:42:53.736Z,101655.06
2022-08-12T16:46:04.070Z,101665.84
2022-08-12T16:48:19.237Z,101675.09
2022-08-12T16:51:04.964Z,101690.84
2022-08-12T16:53:44.158Z,101671.06
2022-08-12T16:56:17.293Z,101689.34
2022-08-12T16:58:47.274Z,101687.16
2022-08-12T17:01:15.643Z,101675.09
2022-08-12T17:03:52.362Z,101671.16
2022-08-12T17:06:22.689Z,101674.56
2022-08-12T17:09:02.731Z,101667.91
2022-08-12T17:11:33.245Z,101642.91
2022-08-12T17:14:01.755Z,101684.72
2022-08-12T17:16:29.828Z,101632.50
2022-08-12T17:19:03.069Z,101638.41
2022-08-12T17:21:41.536Z,101643.53
2022-08-12T17:24:21.462Z,101684.72
2022-08-12T17:26:53.171Z,101680.97
2022-08-12T17:29:32.288Z,101646.75
2022-08-12T17:32:10.228Z,101690.31
2022-08-12T17:34:56.048Z,101664.66
2022-08-12T17:37:22.813Z,101637.69
2022-08-12T17:40:15.817Z,101648.81
2022-08-12T17:42:47.275Z,101649.94
2022-08-12T17:45:19.318Z,101685.09
2022-08-12T17:48:04.857Z,101649.41
2022-08-12T17:50:37.992Z,101689.94
2022-08-12T17:53:08.115Z,101678.91
2022-08-12T17:55:47.813Z,101604.19
2022-08-12T17:58:16.601Z,101637.69
2022-08-12T18:00:45.631Z,101635.16
2022-08-12T18:04:05.055Z,101651.13
2022-08-12T18:06:08.585Z,101605.81
2022-08-12T18:08:54.818Z,101641.38
2022-08-12T18:12:04.216Z,101624.53
2022-08-12T18:14:29.413Z,101605.41
2022-08-12T18:17:00.451Z,101659.84
2022-08-12T18:20:03.915Z,101642.41
2022-08-12T18:22:17.660Z,101647.94
2022-08-12T18:24:58.904Z,101614.81
2022-08-12T18:27:44.647Z,101593.78
2022-08-12T18:30:20.741Z,101650.63
2022-08-12T18:33:03.544Z,101620.63
2022-08-12T18:35:52.896Z,101657.97
2022-08-12T18:38:22.640Z,101674.03
2022-08-12T18:41:11.175Z,101612.47
2022-08-12T18:44:00.789Z,101672.47
2022-08-12T18:46:35.000Z,101674.97
2022-08-12T18:49:18.780Z,101637.19
2022-08-12T18:52:02.560Z,101623.28
2022-08-12T18:54:35.314Z,101643.16
2022-08-12T18:57:16.800Z,101643.97
2022-08-12T19:00:02.025Z,101673.91
2022-08-12T19:02:39.670Z,101662.25
2022-08-12T19:05:10.108Z,101656.16
2022-08-12T19:07:57.963Z,101678.72
2022-08-12T19:10:29.727Z,101676.06
2022-08-12T19:13:20.987Z,101680.44
2022-08-12T19:15:49.690Z,101671.94
2022-08-12T19:18:17.639Z,101676.56
2022-08-12T19:20:50.577Z,101665.22
2022-08-12T19:23:21.386Z,101661.25
2022-08-12T19:26:00.111Z,101673.84
2022-08-12T19:28:35.320Z,101662.16
2022-08-12T19:31:56.502Z,101671.06
2022-08-12T19:37:17.301Z,101679.75
2022-08-12T19:40:09.975Z,101663.00
2022-08-12T19:42:33.027Z,101674.47
2022-08-12T19:45:05.232Z,101688.91
2022-08-12T19:47:38.534Z,101673.19
2022-08-12T19:50:06.816Z,101672.94
2022-08-12T19:52:40.789Z,101674.03
2022-08-12T19:55:11.482Z,101685.34
2022-08-12T19:58:01.874Z,101691.91
2022-08-12T20:00:32.254Z,101677.28
2022-08-12T20:03:04.821Z,101672.50
2022-08-12T20:06:06.055Z,101680.72
2022-08-12T20:08:32.934Z,101686.94
2022-08-12T20:12:14.723Z,101680.59
2022-08-12T20:14:00.579Z,101698.06
2022-08-12T20:16:51.747Z,101702.19
2022-08-12T20:19:15.998Z,101699.09
2022-08-12T20:21:43.615Z,101699.50
2022-08-12T20:24:14.088Z,101694.72
2022-08-12T20:26:42.299Z,101692.38
2022-08-12T20:29:12.476Z,101695.09
2022-08-12T20:31:41.494Z,101693.16
2022-08-12T20:34:12.329Z,101697.38
2022-08-12T20:36:44.963Z,101692.47
2022-08-12T20:39:35.832Z,101692.41
2022-08-12T20:42:04.232Z,101695.41
2022-08-12T20:44:39.847Z,101692.47
2022-08-12T20:47:18.121Z,101700.44
2022-08-12T20:49:55.294Z,101682.16
2022-08-12T20:52:29.887Z,101680.53
2022-08-12T20:54:58.001Z,101692.13
2022-08-12T20:57:37.936Z,101680.19
2022-08-12T21:00:09.148Z,101693.84
2022-08-12T21:02:38.291Z,101694.25
2022-08-12T21:05:23.859Z,101687.66
2022-08-12T21:08:11.897Z,101691.84
2022-08-12T21:10:38.771Z,101680.63
2022-08-12T21:13:20.538Z,101665.59
2022-08-12T21:15:54.640Z,101673.38
2022-08-12T21:18:28.831Z,101660.97
2022-08-12T21:20:59.321Z,101675.00
2022-08-12T21:23:30.906Z,101667.38
2022-08-12T21:26:06.138Z,101663.28
2022-08-12T21:28:38.490Z,101652.00
2022-08-12T21:32:37.547Z,101654.41
2022-08-12T21:34:07.467Z,101669.63
2022-08-12T21:36:40.045Z,101638.31
2022-08-12T21:39:18.646Z,101665.41
2022-08-12T21:41:52.298Z,101648.13
2022-08-12T21:44:24.875Z,101648.31
2022-08-12T21:47:21.737Z,101640.19
2022-08-12T21:49:55.571Z,101645.06
2022-08-12T21:52:34.940Z,101651.72
2022-08-12T21:55:03.936Z,101650.78
2022-08-12T21:57:51.320Z,101636.16
2022-08-12T22:00:21.857Z,101635.41
2022-08-12T22:03:07.958Z,101658.31
2022-08-12T22:06:07.254Z,101641.06
2022-08-12T22:08:40.646Z,101643.19
2022-08-12T22:11:13.412Z,101632.91
2022-08-12T22:14:04.100Z,101643.34
2022-08-12T22:16:35.014Z,101642.59
2022-08-12T22:19:19.447Z,101632.91
2022-08-12T22:21:52.257Z,101641.22
2022-08-12T22:24:26.334Z,101640.53
2022-08-12T22:27:23.021Z,101645.97
2022-08-12T22:30:16.151Z,101624.78
2022-08-12T22:32:51.549Z,101628.97
2022-08-12T22:35:56.341Z,101630.09
2022-08-12T22:38:24.858Z,101628.81
2022-08-12T22:41:34.859Z,101635.41
2022-08-12T22:44:21.167Z,101639.63
2022-08-12T22:47:07.655Z,101635.97
2022-08-12T22:49:37.271Z,101627.28
2022-08-12T22:52:18.591Z,101618.63
2022-08-12T22:55:03.802Z,101630.94
2022-08-12T22:57:49.794Z,101631.44
2022-08-12T23:00:24.508Z,101634.03
2022-08-12T23:03:03.469Z,101628.03
2022-08-12T23:05:56.736Z,101622.53
2022-08-12T23:08:30.190Z,101620.94
2022-08-12T23:11:04.680Z,101626.09
2022-08-12T23:13:55.496Z,101614.56
2022-08-12T23:16:31.182Z,101620.00
2022-08-12T23:19:09.659Z,101602.91
2022-08-12T23:22:06.331Z,101616.31
2022-08-12T23:24:37.039Z,101616.91
2022-08-12T23:27:23.952Z,101602.91
2022-08-12T23:30:18.864Z,101606.50
2022-08-12T23:32:54.318Z,101608.56
2022-08-12T23:35:46.090Z,101605.72
2022-08-12T23:38:24.645Z,101613.84
2022-08-12T23:40:59.732Z,101610.41
2022-08-12T23:43:26.742Z,101603.44
2022-08-12T23:46:09.050Z,101617.78
2022-08-12T23:48:37.755Z,101612.75
2022-08-12T23:51:23.690Z,101614.63
2022-08-12T23:54:07.155Z,101617.22
2022-08-12T23:56:35.447Z,101621.50
2022-08-12T23:59:07.089Z,101604.25
